createdAt,value
2023-01-07T00:01:40.882Z,100518.59
2023-01-07T00:04:11.872Z,100526.50
2023-01-07T00:06:41.224Z,100532.41
2023-01-07T00:09:14.672Z,100529.91
2023-01-07T00:11:42.536Z,100518.59
2023-01-07T00:14:12.825Z,100544.88
2023-01-07T00:16:40.347Z,100544.88
2023-01-07T00:19:10.381Z,100541.63
2023-01-07T00:21:37.454Z,100552.81
2023-01-07T00:24:09.869Z,100546.19
2023-01-07T00:26:38.450Z,100548.59
2023-01-07T00:29:06.655Z,100552.00
2023-01-07T00:31:39.513Z,100567.34
2023-01-07T00:34:09.096Z,100565.69
2023-01-07T00:36:41.256Z,100570.88
2023-01-07T00:39:18.979Z,100577.88
2023-01-07T00:42:05.391Z,100571.38
2023-01-07T00:44:33.340Z,100567.53
2023-01-07T00:47:00.870Z,100552.97
2023-01-07T00:49:27.934Z,100564.13
2023-01-07T00:51:54.933Z,100561.31
2023-01-07T00:54:21.983Z,100557.53
2023-01-07T00:56:49.021Z,100564.63
2023-01-07T00:59:16.012Z,100572.19
2023-01-07T01:01:43.099Z,100581.19
2023-01-07T01:04:10.217Z,100577.06
2023-01-07T01:06:37.278Z,100590.13
2023-01-07T01:09:04.627Z,100593.34
2023-01-07T01:11:31.630Z,100587.81
2023-01-07T01:13:58.605Z,100589.25
2023-01-07T01:16:25.836Z,100590.63
2023-01-07T01:18:52.898Z,100587.47
2023-01-07T01:21:19.992Z,100593.22
2023-01-07T01:23:47.236Z,100590.22
2023-01-07T01:26:17.045Z,100587.41
2023-01-07T01:28:45.135Z,100579.75
2023-01-07T01:31:12.612Z,100586.88
2023-01-07T01:33:40.186Z,100588.56
2023-01-07T01:36:11.457Z,100583.91
2023-01-07T01:38:38.830Z,100581.34
2023-01-07T01:41:07.210Z,100583.84
2023-01-07T01:43:38.457Z,100589.22
2023-01-07T01:46:17.192Z,100598.28
2023-01-07T01:49:06.794Z,100592.75
2023-01-07T01:51:40.344Z,100596.97
2023-01-07T01:54:12.359Z,100597.69
2023-01-07T01:56:44.164Z,100600.97
2023-01-07T01:59:19.084Z,100606.53
2023-01-07T02:01:47.038Z,100609.66
2023-01-07T02:04:18.831Z,100607.22
2023-01-07T02:07:01.243Z,100607.50
2023-01-07T02:09:28.881Z,100591.53
2023-01-07T02:12:35.218Z,100591.66
2023-01-07T02:15:22.382Z,100588.41
2023-01-07T02:18:00.960Z,100598.34
2023-01-07T02:20:35.063Z,100594.66
2023-01-07T02:23:26.630Z,100585.91
2023-01-07T02:26:14.676Z,100594.50
2023-01-07T02:29:36.236Z,100590.59
2023-01-07T02:32:16.961Z,100571.50
2023-01-07T02:35:10.843Z,100577.44
2023-01-07T02:38:23.829Z,100579.31
2023-01-07T02:41:06.040Z,100583.75
2023-01-07T02:43:41.440Z,100580.03
2023-01-07T02:46:21.797Z,100577.44
2023-01-07T02:48:49.305Z,100573.81
2023-01-07T02:51:16.385Z,100588.34
2023-01-07T02:53:47.986Z,100587.97
2023-01-07T02:56:42.052Z,100587.44
2023-01-07T02:59:44.141Z,100585.06
2023-01-07T03:03:02.815Z,100577.44
2023-01-07T03:05:45.151Z,100586.28
2023-01-07T03:08:46.486Z,100583.69
2023-01-07T03:11:14.108Z,100586.78
2023-01-07T03:13:58.924Z,100586.22
2023-01-07T03:16:53.154Z,100585.59
2023-01-07T03:19:32.129Z,100587.31
2023-01-07T03:22:01.985Z,100591.66
2023-01-07T03:24:31.154Z,100589.34
2023-01-07T03:27:01.687Z,100581.88
2023-01-07T03:29:32.227Z,100582.78
2023-01-07T03:32:13.381Z,100588.19
2023-01-07T03:34:41.120Z,100592.97
2023-01-07T03:37:15.754Z,100588.63
2023-01-07T03:39:44.589Z,100585.13
2023-01-07T03:42:32.768Z,100589.63
2023-01-07T03:45:00.517Z,100586.94
2023-01-07T03:47:29.197Z,100578.47
2023-01-07T03:49:56.180Z,100585.88
2023-01-07T03:52:23.170Z,100577.66
2023-01-07T03:54:50.163Z,100590.81
2023-01-07T03:57:17.235Z,100594.00
2023-01-07T03:59:44.184Z,100590.41
2023-01-07T04:02:11.455Z,100593.81
2023-01-07T04:04:38.657Z,100594.72
2023-01-07T04:07:05.871Z,100592.75
2023-01-07T04:09:32.882Z,100596.97
2023-01-07T04:11:59.841Z,100602.28
2023-01-07T04:14:27.011Z,100601.47
2023-01-07T04:16:54.133Z,100593.25
2023-01-07T04:19:22.989Z,100593.63
2023-01-07T04:21:49.953Z,100593.81
2023-01-07T04:24:16.960Z,100586.13
2023-01-07T04:26:43.981Z,100590.13
2023-01-07T04:29:11.769Z,100594.72
2023-01-07T04:31:38.849Z,100596.31
2023-01-07T04:34:06.125Z,100594.25
2023-01-07T04:36:33.181Z,100587.63
2023-01-07T04:39:00.164Z,100596.81
2023-01-07T04:41:27.183Z,100598.38
2023-01-07T04:43:54.138Z,100609.59
2023-01-07T04:46:21.280Z,100599.00
2023-01-07T04:48:48.413Z,100606.25
2023-01-07T04:51:16.566Z,100598.41
2023-01-07T04:53:43.625Z,100595.91
2023-01-07T04:56:10.636Z,100593.72
2023-01-07T04:58:37.700Z,100598.72
2023-01-07T05:01:05.203Z,100608.97
2023-01-07T05:03:34.519Z,100612.88
2023-01-07T05:06:01.852Z,100620.16
2023-01-07T05:08:28.960Z,100622.34
2023-01-07T05:10:56.070Z,100620.94
2023-01-07T05:13:24.102Z,100610.25
2023-01-07T05:15:51.420Z,100619.41
2023-01-07T05:18:19.014Z,100617.22
2023-01-07T05:20:50.255Z,100624.03
2023-01-07T05:23:17.257Z,100625.44
2023-01-07T05:25:44.233Z,100633.41
2023-01-07T05:28:12.273Z,100630.69
2023-01-07T05:30:39.630Z,100639.91
2023-01-07T05:33:07.571Z,100648.09
2023-01-07T05:35:35.593Z,100639.34
2023-01-07T05:38:02.761Z,100637.44
2023-01-07T05:40:29.997Z,100643.72
2023-01-07T05:42:57.144Z,100640.91
2023-01-07T05:45:24.159Z,100645.63
2023-01-07T05:47:51.125Z,100649.50
2023-01-07T05:50:18.232Z,100653.09
2023-01-07T05:52:45.332Z,100658.41
2023-01-07T05:55:12.377Z,100655.56
2023-01-07T05:57:39.362Z,100654.47
2023-01-07T06:00:07.787Z,100649.53
2023-01-07T06:02:34.797Z,100649.25
2023-01-07T06:05:01.861Z,100645.13
2023-01-07T06:07:28.813Z,100645.31
2023-01-07T06:09:55.837Z,100652.31
2023-01-07T06:12:22.808Z,100651.41
2023-01-07T06:14:49.782Z,100643.94
2023-01-07T06:17:16.896Z,100657.50
2023-01-07T06:19:43.894Z,100655.66
2023-01-07T06:22:10.915Z,100654.19
2023-01-07T06:24:38.539Z,100668.81
2023-01-07T06:27:05.795Z,100663.41
2023-01-07T06:29:32.771Z,100673.09
2023-01-07T06:31:59.870Z,100677.94
2023-01-07T06:34:26.925Z,100673.09
2023-01-07T06:36:54.062Z,100683.66
2023-01-07T06:39:21.057Z,100681.41
2023-01-07T06:41:48.008Z,100693.97
2023-01-07T06:44:15.135Z,100684.69
2023-01-07T06:46:42.207Z,100684.50
2023-01-07T06:49:09.299Z,100691.53
2023-01-07T06:51:36.277Z,100685.41
2023-01-07T06:54:03.402Z,100688.13
2023-01-07T06:56:30.465Z,100692.63
2023-01-07T06:58:57.532Z,100698.50
2023-01-07T07:01:24.641Z,100703.38
2023-01-07T07:03:51.692Z,100690.84
2023-01-07T07:06:18.790Z,100709.97
2023-01-07T07:08:45.822Z,100715.50
2023-01-07T07:11:12.882Z,100714.97
2023-01-07T07:13:39.881Z,100723.84
2023-01-07T07:16:07.487Z,100727.63
2023-01-07T07:18:34.518Z,100719.19
2023-01-07T07:21:01.632Z,100723.72
2023-01-07T07:23:28.601Z,100727.50
2023-01-07T07:25:55.603Z,100719.84
2023-01-07T07:28:22.622Z,100727.78
2023-01-07T07:30:49.878Z,100722.66
2023-01-07T07:33:19.470Z,100717.59
2023-01-07T07:35:47.261Z,100719.53
2023-01-07T07:38:14.480Z,100731.78
2023-01-07T07:40:41.495Z,100724.91
2023-01-07T07:43:10.752Z,100721.59
2023-01-07T07:45:41.263Z,100726.41
2023-01-07T07:48:09.981Z,100729.31
2023-01-07T07:50:37.231Z,100737.03
2023-01-07T07:53:04.776Z,100736.72
2023-01-07T07:55:31.955Z,100739.34
2023-01-07T07:57:59.023Z,100737.53
2023-01-07T08:00:26.216Z,100737.53
2023-01-07T08:02:53.306Z,100734.09
2023-01-07T08:05:20.421Z,100731.47
2023-01-07T08:07:47.432Z,100738.25
2023-01-07T08:10:14.455Z,100738.88
2023-01-07T08:12:41.586Z,100741.50
2023-01-07T08:15:09.553Z,100752.34
2023-01-07T08:17:36.933Z,100746.81
2023-01-07T08:20:05.902Z,100750.44
2023-01-07T08:22:35.944Z,100735.94
2023-01-07T08:25:03.442Z,100744.94
2023-01-07T08:27:30.519Z,100733.53
2023-01-07T08:29:57.565Z,100729.22
2023-01-07T08:32:24.854Z,100730.31
2023-01-07T08:34:51.989Z,100732.84
2023-01-07T08:37:19.046Z,100731.94
2023-01-07T08:39:46.295Z,100732.00
2023-01-07T08:42:13.327Z,100731.41
2023-01-07T08:44:40.424Z,100740.25
2023-01-07T08:47:07.445Z,100749.19
2023-01-07T08:49:34.466Z,100730.59
2023-01-07T08:52:01.494Z,100745.03
2023-01-07T08:54:28.611Z,100747.00
2023-01-07T08:56:55.696Z,100748.41
2023-01-07T08:59:22.748Z,100747.84
2023-01-07T09:01:50.015Z,100744.41
2023-01-07T09:04:17.073Z,100738.81
2023-01-07T09:06:44.299Z,100746.00
2023-01-07T09:09:12.019Z,100743.38
2023-01-07T09:11:39.108Z,100747.94
2023-01-07T09:14:06.119Z,100755.47
2023-01-07T09:16:33.289Z,100757.91
2023-01-07T09:19:00.382Z,100755.81
2023-01-07T09:21:27.407Z,100758.09
2023-01-07T09:23:54.469Z,100755.72
2023-01-07T09:26:21.454Z,100749.53
2023-01-07T09:28:48.456Z,100748.53
2023-01-07T09:31:15.512Z,100760.84
2023-01-07T09:33:43.113Z,100752.72
2023-01-07T09:36:10.193Z,100747.47
2023-01-07T09:38:37.483Z,100757.31
2023-01-07T09:41:04.508Z,100750.09
2023-01-07T09:44:00.331Z,100752.25
2023-01-07T09:46:29.974Z,100750.91
2023-01-07T09:49:02.604Z,100749.47
2023-01-07T09:51:38.106Z,100748.16
2023-01-07T09:54:14.649Z,100751.97
2023-01-07T09:56:41.892Z,100746.34
2023-01-07T09:59:12.648Z,100755.69
2023-01-07T10:02:20.123Z,100753.91
2023-01-07T10:05:20.078Z,100755.09
2023-01-07T10:08:29.025Z,100750.69
2023-01-07T10:11:45.510Z,100755.59
2023-01-07T10:14:51.131Z,100757.25
2023-01-07T10:17:54.330Z,100756.50
2023-01-07T10:20:47.330Z,100748.53
2023-01-07T10:23:21.910Z,100737.22
2023-01-07T10:25:53.804Z,100736.91
2023-01-07T10:28:29.473Z,100740.53
2023-01-07T10:30:57.170Z,100741.16
2023-01-07T10:33:31.597Z,100730.38
2023-01-07T10:36:26.664Z,100734.56
2023-01-07T10:39:20.349Z,100729.06
2023-01-07T10:42:29.448Z,100726.53
2023-01-07T10:45:40.250Z,100727.34
2023-01-07T10:48:21.252Z,100729.53
2023-01-07T10:51:14.466Z,100724.97
2023-01-07T10:54:01.022Z,100718.59
2023-01-07T10:56:42.512Z,100710.19
2023-01-07T10:59:19.767Z,100711.53
2023-01-07T11:01:57.700Z,100714.63
2023-01-07T11:04:25.856Z,100721.22
2023-01-07T11:06:55.676Z,100712.91
2023-01-07T11:09:42.361Z,100710.38
2023-01-07T11:12:34.719Z,100718.03
2023-01-07T11:15:14.019Z,100709.31
2023-01-07T11:17:52.327Z,100711.63
2023-01-07T11:20:50.364Z,100711.41
2023-01-07T11:23:29.917Z,100716.97
2023-01-07T11:26:34.198Z,100707.44
2023-01-07T11:29:31.221Z,100704.19
2023-01-07T11:32:03.976Z,100696.66
2023-01-07T11:34:46.201Z,100702.59
2023-01-07T11:37:46.329Z,100695.03
2023-01-07T11:40:13.221Z,100711.78
2023-01-07T11:43:17.018Z,100694.59
2023-01-07T11:46:21.048Z,100699.97
2023-01-07T11:49:04.247Z,100691.84
2023-01-07T11:51:40.508Z,100694.22
2023-01-07T11:54:28.550Z,100693.75
2023-01-07T11:57:26.257Z,100681.63
2023-01-07T12:00:16.405Z,100678.41
2023-01-07T12:02:43.951Z,100678.41
2023-01-07T12:05:27.034Z,100674.03
2023-01-07T12:07:56.844Z,100675.66
2023-01-07T12:10:38.564Z,100668.13
2023-01-07T12:13:18.839Z,100669.75
2023-01-07T12:15:58.470Z,100652.69
2023-01-07T12:19:10.029Z,100639.06
2023-01-07T12:22:07.413Z,100651.88
2023-01-07T12:24:56.352Z,100653.94
2023-01-07T12:28:14.816Z,100650.31
2023-01-07T12:31:17.026Z,100647.25
2023-01-07T12:34:20.133Z,100644.50
2023-01-07T12:37:02.191Z,100647.84
2023-01-07T12:39:40.318Z,100652.97
2023-01-07T12:42:23.628Z,100644.38
2023-01-07T12:44:56.755Z,100653.63
2023-01-07T12:47:50.628Z,100651.19
2023-01-07T12:50:41.353Z,100647.97
2023-01-07T12:53:25.417Z,100655.25
2023-01-07T12:56:00.233Z,100655.75
2023-01-07T12:58:56.857Z,100653.59
2023-01-07T13:01:30.788Z,100653.91
2023-01-07T13:04:18.376Z,100651.88
2023-01-07T13:07:05.480Z,100645.84
2023-01-07T13:09:58.447Z,100634.19
2023-01-07T13:12:48.519Z,100640.59
2023-01-07T13:15:33.954Z,100634.91
2023-01-07T13:18:18.353Z,100636.19
2023-01-07T13:21:14.050Z,100633.94
2023-01-07T13:24:56.459Z,100632.78
2023-01-07T13:28:20.269Z,100632.00
2023-01-07T13:31:27.455Z,100641.41
2023-01-07T13:34:04.754Z,100643.72
2023-01-07T13:37:02.767Z,100647.00
2023-01-07T13:40:07.016Z,100642.84
2023-01-07T13:42:39.919Z,100655.00
2023-01-07T13:45:23.195Z,100648.31
2023-01-07T13:47:57.316Z,100650.59
2023-01-07T13:50:35.540Z,100655.25
2023-01-07T13:53:39.905Z,100659.22
2023-01-07T13:56:18.709Z,100659.19
2023-01-07T13:58:55.677Z,100668.50
2023-01-07T14:01:34.053Z,100661.97
2023-01-07T14:04:04.054Z,100669.72
2023-01-07T14:06:39.176Z,100676.88
2023-01-07T14:09:11.140Z,100667.50
2023-01-07T14:11:42.139Z,100671.53
2023-01-07T14:14:53.269Z,100671.34
2023-01-07T14:17:27.774Z,100677.59
2023-01-07T14:20:18.960Z,100679.31
2023-01-07T14:23:20.777Z,100683.00
2023-01-07T14:26:18.098Z,100682.91
2023-01-07T14:29:12.712Z,100682.63
2023-01-07T14:31:39.772Z,100680.06
2023-01-07T14:34:26.622Z,100678.66
2023-01-07T14:37:06.287Z,100682.88
2023-01-07T14:39:46.709Z,100676.63
2023-01-07T14:42:19.741Z,100677.81
2023-01-07T14:44:50.318Z,100685.03
2023-01-07T14:47:45.003Z,100686.47
2023-01-07T14:50:56.628Z,100686.06
2023-01-07T14:53:57.378Z,100693.88
2023-01-07T14:56:54.221Z,100704.63
2023-01-07T15:00:00.852Z,100697.41
2023-01-07T15:03:08.466Z,100693.72
2023-01-07T15:06:11.125Z,100691.84
2023-01-07T15:09:05.351Z,100693.41
2023-01-07T15:11:52.611Z,100695.75
2023-01-07T15:15:07.705Z,100688.50
2023-01-07T15:17:38.221Z,100707.66
2023-01-07T15:20:06.538Z,100703.16
2023-01-07T15:23:20.331Z,100702.66
2023-01-07T15:26:08.130Z,100706.88
2023-01-07T15:28:51.351Z,100714.75
2023-01-07T15:31:42.273Z,100708.50
2023-01-07T15:34:17.380Z,100705.63
2023-01-07T15:36:49.530Z,100714.88
2023-01-07T15:39:24.679Z,100706.63
2023-01-07T15:41:55.037Z,100706.78
2023-01-07T15:44:41.275Z,100711.44
2023-01-07T15:47:36.950Z,100703.41
2023-01-07T15:50:25.911Z,100704.81
2023-01-07T15:53:05.965Z,100704.56
2023-01-07T15:56:10.404Z,100701.94
2023-01-07T15:58:48.723Z,100703.25
2023-01-07T16:01:22.460Z,100704.91
2023-01-07T16:03:54.373Z,100707.44
2023-01-07T16:06:33.718Z,100702.19
2023-01-07T16:09:25.505Z,100701.34
2023-01-07T16:11:52.989Z,100701.09
2023-01-07T16:14:26.496Z,100697.66
2023-01-07T16:17:14.979Z,100696.69
2023-01-07T16:19:42.488Z,100694.72
2023-01-07T16:22:15.877Z,100691.44
2023-01-07T16:24:52.101Z,100692.34
2023-01-07T16:27:30.463Z,100692.41
2023-01-07T16:29:59.419Z,100689.78
2023-01-07T16:32:27.414Z,100680.78
2023-01-07T16:35:46.380Z,100676.41
2023-01-07T16:38:17.286Z,100667.47
2023-01-07T16:40:46.937Z,100657.22
2023-01-07T16:43:30.031Z,100654.78
2023-01-07T16:46:37.171Z,100654.59
2023-01-07T16:49:21.744Z,100654.78
2023-01-07T16:52:05.947Z,100656.22
2023-01-07T16:54:40.118Z,100659.94
2023-01-07T16:57:13.102Z,100650.41
2023-01-07T16:59:53.821Z,100641.06
2023-01-07T17:02:48.733Z,100638.28
2023-01-07T17:05:29.081Z,100632.56
2023-01-07T17:07:59.299Z,100641.72
2023-01-07T17:10:40.794Z,100636.41
2023-01-07T17:13:35.947Z,100654.28
2023-01-07T17:16:32.328Z,100646.41
2023-01-07T17:19:26.075Z,100649.94
2023-01-07T17:21:54.678Z,100651.16
2023-01-07T17:24:46.706Z,100642.22
2023-01-07T17:27:28.116Z,100642.97
2023-01-07T17:29:55.727Z,100642.88
2023-01-07T17:32:24.406Z,100644.19
2023-01-07T17:34:51.524Z,100652.63
2023-01-07T17:37:18.624Z,100651.56
2023-01-07T17:39:46.902Z,100651.81
2023-01-07T17:42:44.447Z,100642.88
2023-01-07T17:45:17.577Z,100650.34
2023-01-07T17:47:45.484Z,100653.88
2023-01-07T17:50:14.717Z,100644.44
2023-01-07T17:52:45.983Z,100641.97
2023-01-07T17:55:21.577Z,100640.16
2023-01-07T17:57:48.611Z,100627.28
2023-01-07T18:00:20.329Z,100634.69
2023-01-07T18:02:51.165Z,100631.31
2023-01-07T18:05:24.677Z,100630.56
2023-01-07T18:07:53.192Z,100628.53
2023-01-07T18:10:29.211Z,100634.03
2023-01-07T18:12:56.291Z,100633.94
2023-01-07T18:15:27.443Z,100625.16
2023-01-07T18:17:54.499Z,100637.31
2023-01-07T18:20:22.702Z,100644.16
2023-01-07T18:22:50.435Z,100636.31
2023-01-07T18:25:22.439Z,100626.22
2023-01-07T18:27:52.771Z,100631.41
2023-01-07T18:30:22.181Z,100626.00
2023-01-07T18:32:52.993Z,100636.81
2023-01-07T18:35:20.197Z,100635.91
2023-01-07T18:37:50.359Z,100635.00
2023-01-07T18:40:18.758Z,100624.91
2023-01-07T18:42:45.951Z,100631.97
2023-01-07T18:45:13.673Z,100627.03
2023-01-07T18:47:42.958Z,100618.28
2023-01-07T18:50:10.222Z,100616.13
2023-01-07T18:52:41.745Z,100614.91
2023-01-07T18:55:11.031Z,100620.81
2023-01-07T18:57:38.131Z,100628.84
2023-01-07T19:00:06.544Z,100625.34
2023-01-07T19:02:33.959Z,100614.91
2023-01-07T19:05:01.021Z,100614.72
2023-01-07T19:07:30.468Z,100607.09
2023-01-07T19:09:57.461Z,100609.06
2023-01-07T19:12:24.500Z,100609.81
2023-01-07T19:14:51.551Z,100607.78
2023-01-07T19:17:18.531Z,100601.25
2023-01-07T19:19:48.633Z,100616.03
2023-01-07T19:22:16.793Z,100607.44
2023-01-07T19:24:44.728Z,100620.63
2023-01-07T19:27:12.584Z,100611.00
2023-01-07T19:29:39.652Z,100612.50
2023-01-07T19:32:06.743Z,100611.13
2023-01-07T19:34:33.818Z,100616.19
2023-01-07T19:37:00.850Z,100612.56
2023-01-07T19:39:27.858Z,100602.25
2023-01-07T19:41:54.894Z,100603.94
2023-01-07T19:44:21.969Z,100606.38
2023-01-07T19:46:48.999Z,100609.34
2023-01-07T19:49:16.029Z,100605.53
2023-01-07T19:51:44.155Z,100598.97
2023-01-07T19:54:16.021Z,100604.16
2023-01-07T19:56:43.853Z,100603.13
2023-01-07T19:59:11.193Z,100595.38
2023-01-07T20:01:38.984Z,100601.94
2023-01-07T20:04:08.319Z,100608.41
2023-01-07T20:06:41.290Z,100602.69
2023-01-07T20:09:11.326Z,100595.06
2023-01-07T20:11:39.910Z,100588.91
2023-01-07T20:14:10.694Z,100589.41
2023-01-07T20:16:39.631Z,100583.84
2023-01-07T20:19:07.672Z,100568.66
2023-01-07T20:21:34.659Z,100576.47
2023-01-07T20:24:02.061Z,100578.84
2023-01-07T20:26:31.890Z,100574.25
2023-01-07T20:29:00.444Z,100571.03
2023-01-07T20:31:29.241Z,100569.31
2023-01-07T20:33:57.486Z,100576.97
2023-01-07T20:36:29.020Z,100572.72
2023-01-07T20:38:56.420Z,100568.91
2023-01-07T20:41:26.788Z,100583.75
2023-01-07T20:43:59.716Z,100572.09
2023-01-07T20:46:29.047Z,100577.34
2023-01-07T20:48:57.340Z,100567.59
2023-01-07T20:51:25.291Z,100572.03
2023-01-07T20:53:52.594Z,100572.22
2023-01-07T20:56:22.945Z,100574.25
2023-01-07T20:58:51.165Z,100573.09
2023-01-07T21:01:22.183Z,100568.41
2023-01-07T21:03:49.864Z,100568.66
2023-01-07T21:06:19.718Z,100572.28
2023-01-07T21:08:48.543Z,100565.22
2023-01-07T21:11:21.382Z,100565.66
2023-01-07T21:13:50.262Z,100567.09
2023-01-07T21:16:18.060Z,100562.03
2023-01-07T21:18:45.273Z,100560.97
2023-01-07T21:21:19.185Z,100568.03
2023-01-07T21:23:47.078Z,100556.72
2023-01-07T21:26:15.270Z,100563.59
2023-01-07T21:28:44.324Z,100577.84
2023-01-07T21:31:14.376Z,100566.78
2023-01-07T21:33:41.857Z,100564.41
2023-01-07T21:36:19.354Z,100564.91
2023-01-07T21:38:47.175Z,100557.09
2023-01-07T21:41:17.596Z,100559.97
2023-01-07T21:43:45.000Z,100554.72
2023-01-07T21:46:12.742Z,100564.16
2023-01-07T21:48:44.451Z,100552.09
2023-01-07T21:51:20.323Z,100554.66
2023-01-07T21:53:47.957Z,100556.72
2023-01-07T21:56:17.975Z,100563.59
2023-01-07T21:58:46.945Z,100554.72
2023-01-07T22:01:15.885Z,100551.59
2023-01-07T22:03:49.213Z,100565.66
2023-01-07T22:06:20.097Z,100553.41
2023-01-07T22:08:47.543Z,100553.28
2023-01-07T22:11:17.647Z,100562.91
2023-01-07T22:13:44.675Z,100553.84
2023-01-07T22:16:11.775Z,100556.47
2023-01-07T22:18:38.890Z,100555.66
2023-01-07T22:21:06.153Z,100547.09
2023-01-07T22:23:33.181Z,100545.41
2023-01-07T22:26:05.696Z,100544.97
2023-01-07T22:28:35.736Z,100544.41
2023-01-07T22:31:32.893Z,100537.28
2023-01-07T22:34:00.164Z,100538.00
2023-01-07T22:36:45.711Z,100539.81
2023-01-07T22:39:25.853Z,100535.31
2023-01-07T22:41:56.309Z,100529.19
2023-01-07T22:44:45.649Z,100534.25
2023-01-07T22:47:17.786Z,100536.69
2023-01-07T22:49:45.805Z,100532.63
2023-01-07T22:52:12.949Z,100542.13
2023-01-07T22:54:40.079Z,100530.00
2023-01-07T22:57:11.015Z,100523.34
2023-01-07T22:59:38.553Z,100535.13
2023-01-07T23:02:06.067Z,100538.34
2023-01-07T23:04:33.233Z,100534.75
2023-01-07T23:07:00.336Z,100532.19
2023-01-07T23:09:27.366Z,100540.13
2023-01-07T23:11:59.380Z,100533.44
2023-01-07T23:14:28.968Z,100523.59
2023-01-07T23:16:57.216Z,100523.34
2023-01-07T23:19:24.279Z,100522.69
2023-01-07T23:21:53.402Z,100525.06
2023-01-07T23:24:21.392Z,100534.81
2023-01-07T23:26:51.481Z,100518.84
2023-01-07T23:29:19.256Z,100523.66
2023-01-07T23:31:46.820Z,100515.66
2023-01-07T23:34:16.659Z,100516.41
2023-01-07T23:36:43.948Z,100515.16
2023-01-07T23:39:11.021Z,100509.16
2023-01-07T23:41:37.989Z,100513.03
2023-01-07T23:44:05.135Z,100514.72
2023-01-07T23:46:32.965Z,100507.34
2023-01-07T23:49:00.033Z,100506.16
2023-01-07T23:51:27.364Z,100494.00
2023-01-07T23:53:54.537Z,100497.09
2023-01-07T23:56:22.588Z,100488.47
2023-01-07T23:58:50.621Z,100482.94
